Time;durP1;ratioP1;P1;durP2;ratioP2;P2;SDS_P1;SDS_P2;PMS_P1;PMS_P2;Temp;Humidity;BMP_temperature;BMP_pressure;BME280_temperature;BME280_humidity;BME280_pressure;Samples;Min_cycle;Max_cycle;Signal;HPM_P1;HPM_P2
2023/03/28 00:00:33;;;;;;;14.57;2.58;;;1.30;91.50;;;;;;4994233;28;20384;-64
2023/03/28 00:02:59;;;;;;;10.23;2.58;;;1.20;92.80;;;;;;4993913;28;20438;-64
2023/03/28 00:05:24;;;;;;;15.82;2.42;;;1.20;93.40;;;;;;4994039;28;20034;-64
2023/03/28 00:07:50;;;;;;;10.43;2.60;;;1.20;92.20;;;;;;4994058;28;20113;-64
2023/03/28 00:10:16;;;;;;;14.65;2.83;;;1.10;93.30;;;;;;4994003;28;20490;-63
2023/03/28 00:12:42;;;;;;;15.57;3.08;;;1.00;93.00;;;;;;4993988;28;20026;-63
2023/03/28 00:15:08;;;;;;;10.15;2.50;;;1.10;97.00;;;;;;4993976;28;20113;-64
2023/03/28 00:17:34;;;;;;;15.57;3.00;;;1.10;99.20;;;;;;4994071;28;20056;-64
2023/03/28 00:20:01;;;;;;;17.48;2.67;;;1.20;96.10;;;;;;4993992;28;20027;-64
2023/03/28 00:22:29;;;;;;;15.32;3.15;;;1.20;95.10;;;;;;4993931;28;20480;-65
2023/03/28 00:24:57;;;;;;;11.55;3.55;;;1.10;93.80;;;;;;4993515;28;20054;-63
2023/03/28 00:27:23;;;;;;;14.82;2.90;;;1.20;97.90;;;;;;4993746;28;20468;-64
2023/03/28 00:29:49;;;;;;;8.35;2.63;;;1.20;98.80;;;;;;4993789;28;20476;-64
2023/03/28 00:32:15;;;;;;;8.27;2.20;;;1.20;98.80;;;;;;4993732;28;20634;-64
2023/03/28 00:34:40;;;;;;;17.83;3.10;;;1.20;97.70;;;;;;4993839;28;20121;-64
2023/03/28 00:37:06;;;;;;;16.05;2.90;;;1.20;99.40;;;;;;4993485;28;20115;-64
2023/03/28 00:39:32;;;;;;;11.43;2.75;;;1.20;97.70;;;;;;4993533;28;20045;-64
2023/03/28 00:42:00;;;;;;;14.25;3.00;;;1.20;99.50;;;;;;4993471;28;20034;-64
2023/03/28 00:44:52;;;;;;;10.30;2.60;;;1.20;99.90;;;;;;4993529;28;20040;-63
2023/03/28 00:47:46;;;;;;;13.68;3.28;;;1.10;98.80;;;;;;4993675;28;20031;-64
2023/03/28 00:50:29;;;;;;;13.00;2.58;;;1.00;99.90;;;;;;4993169;28;20026;-64
2023/03/28 00:53:03;;;;;;;11.65;2.70;;;1.10;99.90;;;;;;4993540;28;20030;-63
2023/03/28 00:55:35;;;;;;;17.98;2.50;;;1.00;99.90;;;;;;4992969;28;20033;-63
2023/03/28 00:58:05;;;;;;;19.30;3.00;;;0.90;99.90;;;;;;4992997;28;20058;-64
2023/03/28 01:00:33;;;;;;;14.57;3.15;;;1.00;99.90;;;;;;4993329;28;20030;-64
2023/03/28 01:03:01;;;;;;;10.25;2.80;;;1.00;99.90;;;;;;4993117;28;20030;-65
2023/03/28 01:05:31;;;;;;;8.32;2.65;;;1.00;99.90;;;;;;4993251;28;20430;-64
2023/03/28 01:08:09;;;;;;;16.60;3.20;;;0.90;99.90;;;;;;4992874;28;20027;-64
2023/03/28 01:10:35;;;;;;;12.05;2.97;;;0.80;99.90;;;;;;4993148;28;20023;-64
2023/03/28 01:13:01;;;;;;;13.63;3.05;;;0.70;99.90;;;;;;4993166;28;20072;-64
2023/03/28 01:15:28;;;;;;;11.90;2.80;;;0.70;99.90;;;;;;4993311;28;20082;-64
2023/03/28 01:17:55;;;;;;;13.63;3.28;;;0.70;99.90;;;;;;4992874;28;20029;-64
2023/03/28 01:20:36;;;;;;;10.68;2.85;;;0.70;99.90;;;;;;4992833;28;20026;-64
2023/03/28 01:23:26;;;;;;;17.00;3.03;;;0.70;99.90;;;;;;4993010;28;20046;-64
2023/03/28 01:26:31;;;;;;;13.48;3.03;;;0.70;99.90;;;;;;4992557;28;20038;-64
2023/03/28 01:32:27;;;;;;;19.27;3.47;;;0.50;99.90;;;;;;5111099;27;20438;-63
2023/03/28 01:35:20;;;;;;;13.35;3.42;;;0.40;99.90;;;;;;5111174;28;20047;-62
2023/03/28 01:37:59;;;;;;;12.93;3.50;;;0.30;99.90;;;;;;5111032;28;20586;-62
2023/03/28 01:40:35;;;;;;;12.55;3.47;;;0.20;99.90;;;;;;5111218;28;20043;-63
2023/03/28 01:43:25;;;;;;;9.95;3.92;;;0.10;99.90;;;;;;5111049;28;20063;-63
2023/03/28 01:45:59;;;;;;;21.90;4.80;;;0.30;99.90;;;;;;5111134;28;20058;-63
2023/03/28 01:48:52;;;;;;;15.43;4.47;;;0.30;99.90;;;;;;5111019;28;20073;-63
2023/03/28 01:51:44;;;;;;;12.90;4.05;;;0.30;99.90;;;;;;5110642;28;20121;-63
2023/03/28 01:54:36;;;;;;;18.20;4.57;;;0.30;99.90;;;;;;5110926;28;20024;-63
2023/03/28 01:57:32;;;;;;;14.77;4.28;;;0.30;99.90;;;;;;5110838;28;20473;-63
2023/03/28 02:00:18;;;;;;;14.95;4.28;;;0.20;99.90;;;;;;5110923;28;20027;-63
2023/03/28 02:02:50;;;;;;;19.90;4.13;;;0.10;99.90;;;;;;5110516;28;20440;-63
2023/03/28 02:05:18;;;;;;;11.60;2.90;;;0.00;99.90;;;;;;5110549;28;20020;-63
2023/03/28 02:07:47;;;;;;;14.93;3.72;;;0.00;99.90;;;;;;5110429;28;20066;-62
2023/03/28 02:10:15;;;;;;;12.50;3.85;;;-0.10;99.90;;;;;;5110609;28;20032;-64
2023/03/28 02:12:47;;;;;;;11.57;3.83;;;0.00;99.90;;;;;;5110370;28;20024;-62
2023/03/28 02:15:16;;;;;;;9.68;3.58;;;-0.10;99.90;;;;;;5110060;28;20024;-62
2023/03/28 02:17:46;;;;;;;15.50;3.85;;;-0.20;99.90;;;;;;5110338;28;20055;-62
2023/03/28 02:20:18;;;;;;;19.15;4.20;;;-0.20;99.90;;;;;;5110368;28;20176;-63
2023/03/28 02:22:57;;;;;;;12.20;4.53;;;-0.20;99.90;;;;;;5110386;28;20043;-63
2023/03/28 02:25:23;;;;;;;13.75;4.40;;;-0.20;99.90;;;;;;5110344;28;20054;-63
2023/03/28 02:27:54;;;;;;;17.70;4.28;;;-0.30;99.90;;;;;;5109811;28;20083;-63
2023/03/28 02:30:20;;;;;;;11.93;4.13;;;-0.40;99.90;;;;;;5109556;28;20072;-63
2023/03/28 02:32:48;;;;;;;15.55;4.13;;;-0.40;99.90;;;;;;5109979;28;20020;-63
2023/03/28 02:35:16;;;;;;;10.45;4.05;;;-0.50;99.90;;;;;;5109734;28;20024;-63
2023/03/28 02:38:06;;;;;;;12.55;3.90;;;-0.50;99.90;;;;;;5109921;28;20107;-63
2023/03/28 02:40:45;;;;;;;12.45;3.90;;;-0.60;99.90;;;;;;5109997;28;20085;-63
2023/03/28 02:43:31;;;;;;;12.77;3.78;;;-0.60;99.90;;;;;;5097497;28;20104;-63
2023/03/28 02:46:10;;;;;;;20.48;4.32;;;-0.60;99.90;;;;;;5096274;28;20027;-63
2023/03/28 02:48:52;;;;;;;15.20;3.95;;;-0.60;99.90;;;;;;5096136;28;20093;-63
2023/03/28 02:51:41;;;;;;;15.68;4.25;;;-0.70;99.90;;;;;;5095964;28;20035;-63
2023/03/28 02:54:31;;;;;;;10.32;3.63;;;-0.70;99.90;;;;;;5095999;28;20020;-63
2023/03/28 02:57:23;;;;;;;8.95;3.85;;;-0.70;99.90;;;;;;5096220;28;20027;-63
2023/03/28 02:59:55;;;;;;;15.15;4.25;;;-0.80;99.90;;;;;;5096077;28;20027;-63
2023/03/28 03:02:21;;;;;;;25.35;4.80;;;-0.80;99.90;;;;;;5095990;28;20028;-63
2023/03/28 03:04:49;;;;;;;18.90;4.35;;;-0.80;99.90;;;;;;5095798;28;20103;-63
2023/03/28 03:07:17;;;;;;;19.52;4.95;;;-0.80;99.90;;;;;;5095961;28;20028;-63
2023/03/28 03:09:44;;;;;;;16.65;4.93;;;-0.80;99.90;;;;;;5095579;28;20474;-63
2023/03/28 03:12:10;;;;;;;13.38;4.57;;;-0.90;99.90;;;;;;5096077;28;20489;-63
2023/03/28 03:14:37;;;;;;;16.15;4.97;;;-0.90;99.90;;;;;;5095985;28;20024;-63
2023/03/28 03:17:04;;;;;;;10.77;3.90;;;-0.90;99.90;;;;;;5095802;28;20394;-64
2023/03/28 03:19:30;;;;;;;22.00;4.80;;;-1.00;99.90;;;;;;5095701;28;20073;-63
2023/03/28 03:21:56;;;;;;;15.55;5.05;;;-1.00;99.90;;;;;;5095314;28;20028;-64
2023/03/28 03:24:23;;;;;;;18.30;4.80;;;-1.00;99.90;;;;;;5095550;28;20160;-63
2023/03/28 03:26:49;;;;;;;17.55;4.97;;;-1.00;99.90;;;;;;5095595;28;20443;-63
2023/03/28 03:29:15;;;;;;;20.58;5.43;;;-0.90;99.90;;;;;;5095536;28;20084;-63
2023/03/28 03:31:40;;;;;;;20.25;5.15;;;-0.90;99.90;;;;;;5095197;28;20044;-63
2023/03/28 03:34:06;;;;;;;17.40;5.05;;;-0.90;99.90;;;;;;5095353;28;20101;-63
2023/03/28 03:36:32;;;;;;;23.23;6.35;;;-0.90;99.90;;;;;;5095458;28;20424;-63
2023/03/28 03:38:57;;;;;;;17.23;5.43;;;-0.80;99.90;;;;;;5095403;28;20412;-64
2023/03/28 03:41:23;;;;;;;15.15;5.57;;;-0.80;99.90;;;;;;5095220;28;20038;-63
2023/03/28 03:43:49;;;;;;;17.40;5.05;;;-0.80;99.90;;;;;;5095025;28;20055;-63
2023/03/28 03:46:14;;;;;;;11.23;5.50;;;-0.90;99.90;;;;;;5094689;28;20020;-63
2023/03/28 03:48:40;;;;;;;18.13;5.72;;;-1.00;99.90;;;;;;5095159;28;20039;-63
2023/03/28 03:51:06;;;;;;;23.10;7.05;;;-1.00;99.90;;;;;;5094671;28;20031;-63
2023/03/28 03:53:33;;;;;;;20.75;6.93;;;-0.90;99.90;;;;;;5093725;28;20016;-64
2023/03/28 03:56:00;;;;;;;26.80;7.70;;;-0.80;99.90;;;;;;5094901;28;20109;-63
2023/03/28 03:58:26;;;;;;;17.67;6.80;;;-0.60;99.90;;;;;;5095010;28;20043;-63
2023/03/28 04:00:51;;;;;;;20.13;7.03;;;-0.60;99.90;;;;;;5094848;28;20028;-63
2023/03/28 04:03:17;;;;;;;31.90;8.07;;;-0.60;99.90;;;;;;5094844;28;20034;-63
2023/03/28 04:05:42;;;;;;;29.50;8.95;;;-0.70;99.90;;;;;;5094639;28;20024;-63
2023/03/28 04:08:08;;;;;;;23.38;7.93;;;-0.60;99.90;;;;;;5094807;28;20036;-63
2023/03/28 04:10:33;;;;;;;25.63;8.05;;;-0.60;99.90;;;;;;5094546;28;20035;-63
2023/03/28 04:12:59;;;;;;;27.20;8.82;;;-0.60;99.90;;;;;;5094736;28;20028;-63
2023/03/28 04:15:25;;;;;;;21.17;8.35;;;-0.60;99.90;;;;;;5094405;28;20125;-63
2023/03/28 04:17:51;;;;;;;19.73;7.72;;;-0.60;99.90;;;;;;5094437;28;20020;-63
2023/03/28 04:20:17;;;;;;;28.27;8.48;;;-0.70;99.90;;;;;;5094541;28;20031;-63
2023/03/28 04:22:42;;;;;;;26.88;8.18;;;-0.70;99.90;;;;;;5094477;28;20024;-63
2023/03/28 04:25:08;;;;;;;25.90;8.98;;;-0.70;99.90;;;;;;5094536;28;20371;-63
2023/03/28 04:27:34;;;;;;;33.03;8.38;;;-0.70;99.90;;;;;;5094358;28;20060;-64
2023/03/28 04:30:00;;;;;;;32.45;9.45;;;-0.70;99.90;;;;;;5094095;28;20053;-63
2023/03/28 04:32:26;;;;;;;20.92;8.52;;;-0.50;99.90;;;;;;5094321;28;20020;-63
2023/03/28 04:34:51;;;;;;;27.33;8.57;;;-0.40;99.90;;;;;;5094061;28;20024;-63
2023/03/28 04:37:18;;;;;;;29.23;8.98;;;-0.50;99.90;;;;;;5094030;28;20385;-63
2023/03/28 04:39:46;;;;;;;24.23;9.32;;;-0.50;99.90;;;;;;5094180;28;20028;-63
2023/03/28 04:42:13;;;;;;;29.67;10.27;;;-0.50;99.90;;;;;;5094206;28;20065;-63
2023/03/28 04:44:39;;;;;;;21.92;9.27;;;-0.40;99.90;;;;;;5094157;28;20050;-63
2023/03/28 04:47:07;;;;;;;28.95;10.10;;;-0.40;99.90;;;;;;5093784;28;20024;-63
2023/03/28 04:49:33;;;;;;;40.80;11.05;;;-0.30;99.90;;;;;;5094005;28;20024;-63
2023/03/28 04:51:59;;;;;;;29.17;11.18;;;-0.20;99.90;;;;;;5093874;28;20032;-63
2023/03/28 04:54:25;;;;;;;30.88;10.73;;;-0.20;99.90;;;;;;5093747;28;20390;-63
2023/03/28 04:56:51;;;;;;;26.77;11.25;;;-0.10;99.90;;;;;;5093909;28;20016;-63
2023/03/28 04:59:17;;;;;;;30.02;11.25;;;0.00;99.90;;;;;;5093723;28;20081;-63
2023/03/28 05:01:48;;;;;;;34.65;12.57;;;0.00;99.90;;;;;;5093685;28;20105;-63
2023/03/28 05:04:16;;;;;;;38.30;12.88;;;0.10;99.90;;;;;;5093833;28;20474;-63
2023/03/28 05:06:43;;;;;;;36.90;12.68;;;0.20;99.90;;;;;;5093493;28;20456;-63
2023/03/28 05:09:09;;;;;;;37.97;13.32;;;0.20;99.90;;;;;;5093348;28;20401;-63
2023/03/28 05:11:35;;;;;;;31.45;12.88;;;0.20;99.90;;;;;;5093557;28;20492;-63
2023/03/28 05:14:00;;;;;;;29.40;12.98;;;0.20;99.90;;;;;;5093612;28;20024;-63
2023/03/28 05:16:26;;;;;;;38.75;13.18;;;0.30;99.90;;;;;;5093645;28;20035;-63
2023/03/28 05:18:51;;;;;;;28.40;13.20;;;0.30;99.90;;;;;;5093719;28;20386;-63
2023/03/28 05:21:17;;;;;;;34.25;15.27;;;0.30;99.90;;;;;;5093492;28;20024;-63
2023/03/28 05:23:42;;;;;;;30.45;13.35;;;0.30;99.90;;;;;;5093683;28;20032;-63
2023/03/28 05:26:08;;;;;;;39.00;14.75;;;0.30;99.90;;;;;;5093371;28;20089;-63
2023/03/28 05:28:33;;;;;;;30.48;14.10;;;0.30;99.90;;;;;;5093592;28;20067;-63
2023/03/28 05:30:59;;;;;;;30.88;14.68;;;0.30;99.90;;;;;;5093099;28;20047;-63
2023/03/28 05:33:24;;;;;;;35.42;14.52;;;0.40;99.90;;;;;;5093237;28;20389;-63
2023/03/28 05:35:50;;;;;;;27.52;15.10;;;0.40;99.90;;;;;;5093221;28;20503;-63
2023/03/28 05:38:16;;;;;;;35.63;16.27;;;0.50;99.90;;;;;;5093290;28;20470;-63
2023/03/28 05:40:42;;;;;;;29.38;15.60;;;0.50;99.90;;;;;;5093259;28;20393;-63
2023/03/28 05:43:07;;;;;;;36.38;16.58;;;0.70;99.90;;;;;;5093141;28;20024;-63
2023/03/28 05:45:33;;;;;;;37.33;16.48;;;0.80;99.90;;;;;;5093372;28;20028;-64
2023/03/28 05:47:58;;;;;;;41.92;16.20;;;0.80;99.90;;;;;;5093380;28;20498;-63
2023/03/28 05:50:25;;;;;;;41.92;15.98;;;0.90;99.90;;;;;;5093142;28;20054;-63
2023/03/28 05:52:50;;;;;;;33.53;14.63;;;1.10;99.90;;;;;;5093151;28;20027;-63
2023/03/28 05:55:16;;;;;;;33.63;13.98;;;1.70;99.90;;;;;;5093532;28;20024;-63
2023/03/28 05:57:42;;;;;;;32.00;13.73;;;1.70;99.90;;;;;;5093106;28;20028;-63
2023/03/28 06:00:09;;;;;;;33.33;12.57;;;2.10;99.90;;;;;;5093088;28;20028;-63
2023/03/28 06:02:35;;;;;;;21.92;11.40;;;2.50;99.90;;;;;;5092911;28;20020;-64
2023/03/28 06:05:00;;;;;;;27.70;9.63;;;2.90;99.90;;;;;;5093011;28;20401;-63
2023/03/28 06:07:27;;;;;;;24.45;10.38;;;3.10;79.40;;;;;;5093095;28;20386;-63
2023/03/28 06:09:52;;;;;;;21.15;8.88;;;3.30;77.20;;;;;;5092839;28;20508;-63
2023/03/28 06:12:18;;;;;;;21.55;9.27;;;2.70;57.70;;;;;;5092944;28;20020;-63
2023/03/28 06:14:43;;;;;;;23.77;9.75;;;2.60;63.30;;;;;;5092959;28;20474;-63
2023/03/28 06:17:09;;;;;;;25.10;9.05;;;2.60;87.30;;;;;;5093936;28;20016;-63
2023/03/28 06:19:34;;;;;;;23.65;9.43;;;2.90;85.90;;;;;;5096889;28;20050;-64
2023/03/28 06:22:01;;;;;;;23.27;9.05;;;3.30;75.40;;;;;;5096666;28;20024;-63
2023/03/28 06:24:27;;;;;;;18.85;8.18;;;3.70;50.70;;;;;;5096427;28;20051;-63
2023/03/28 06:26:52;;;;;;;24.88;8.52;;;4.00;22.10;;;;;;5096236;28;20051;-64
2023/03/28 06:29:18;;;;;;;25.98;8.77;;;4.00;14.40;;;;;;5096458;28;20062;-63
2023/03/28 06:31:44;;;;;;;29.77;9.27;;;3.80;1.60;;;;;;5093370;28;20401;-64
2023/03/28 06:34:10;;;;;;;23.00;8.20;;;3.40;30.40;;;;;;5096851;28;20039;-63
2023/03/28 06:36:36;;;;;;;17.02;8.93;;;3.30;44.00;;;;;;5099151;28;20024;-64
2023/03/28 06:39:02;;;;;;;24.02;8.75;;;3.80;54.60;;;;;;5096108;28;20041;-63
2023/03/28 06:41:27;;;;;;;22.25;8.32;;;4.40;19.50;;;;;;5112336;28;20055;-63
2023/03/28 06:43:53;;;;;;;18.52;7.80;;;5.00;1.00;;;;;;5116592;28;20435;-63
2023/03/28 06:46:19;;;;;;;24.70;8.55;;;4.70;1.00;;;;;;5116301;28;20435;-63
2023/03/28 06:48:44;;;;;;;20.33;8.57;;;4.40;1.00;;;;;;5116520;28;20034;-63
2023/03/28 06:51:11;;;;;;;22.20;8.35;;;4.70;1.00;;;;;;5116530;28;20031;-63
2023/03/28 06:53:37;;;;;;;21.70;8.40;;;5.40;1.00;;;;;;5115097;28;20035;-64
2023/03/28 06:56:03;;;;;;;21.25;7.80;;;6.30;1.00;;;;;;5095724;28;20020;-63
2023/03/28 06:58:29;;;;;;;24.17;8.60;;;6.50;99.90;;;;;;5095993;28;20024;-63
2023/03/28 07:00:58;;;;;;;21.10;7.88;;;6.90;1.00;;;;;;5095862;28;20032;-63
2023/03/28 07:03:23;;;;;;;21.98;7.80;;;6.30;5.50;;;;;;5096057;28;20383;-63
2023/03/28 07:05:49;;;;;;;26.35;7.68;;;6.30;99.90;;;;;;5095980;28;20028;-63
2023/03/28 07:08:14;;;;;;;22.27;7.80;;;7.00;1.00;;;;;;5095519;28;20542;-63
2023/03/28 07:10:40;;;;;;;23.48;8.15;;;7.30;99.90;;;;;;5095661;28;20041;-63
2023/03/28 07:13:06;;;;;;;21.20;7.35;;;6.80;99.90;;;;;;5095780;28;20027;-63
2023/03/28 07:15:31;;;;;;;28.02;8.50;;;6.70;99.90;;;;;;5095813;28;20039;-63
2023/03/28 07:17:57;;;;;;;22.98;7.55;;;7.60;1.00;;;;;;5095679;28;20442;-63
2023/03/28 07:20:23;;;;;;;19.73;7.15;;;8.40;99.90;;;;;;5095716;28;20031;-63
2023/03/28 07:22:49;;;;;;;20.45;8.13;;;7.70;1.00;;;;;;5095377;28;20026;-63
2023/03/28 07:25:15;;;;;;;27.85;8.35;;;7.10;99.90;;;;;;5095505;28;20489;-63
2023/03/28 07:27:41;;;;;;;27.25;8.60;;;6.60;99.90;;;;;;5095278;28;20115;-63
2023/03/28 07:30:09;;;;;;;32.50;10.30;;;5.60;8.70;;;;;;5095161;28;20044;-63
2023/03/28 07:32:35;;;;;;;22.83;9.18;;;6.00;99.90;;;;;;5095242;28;20034;-64
2023/03/28 07:35:05;;;;;;;28.00;8.68;;;7.40;1.00;;;;;;5095589;28;20102;-63
2023/03/28 07:37:32;;;;;;;20.08;7.88;;;8.10;99.90;;;;;;5094927;28;20016;-63
2023/03/28 07:39:57;;;;;;;19.70;7.57;;;8.70;99.90;;;;;;5094744;28;20115;-63
2023/03/28 07:42:23;;;;;;;20.17;7.13;;;9.00;99.90;;;;;;5095164;28;20052;-63
2023/03/28 07:44:48;;;;;;;20.77;7.70;;;9.20;99.90;;;;;;5095088;28;20039;-65
2023/03/28 07:47:15;;;;;;;20.25;7.57;;;9.70;75.40;;;;;;5095157;28;20035;-63
2023/03/28 07:49:41;;;;;;;20.70;7.20;;;10.30;99.90;;;;;;5094913;28;20081;-63
2023/03/28 07:52:06;;;;;;;21.92;7.47;;;11.00;99.90;;;;;;5094627;28;20464;-64
2023/03/28 07:54:33;;;;;;;17.90;7.72;;;10.50;99.90;;;;;;5094863;28;20105;-63
2023/03/28 07:56:59;;;;;;;22.50;7.25;;;9.60;99.90;;;;;;5094772;28;20103;-63
2023/03/28 07:59:25;;;;;;;21.50;7.25;;;9.90;1.00;;;;;;5094421;28;20024;-63
2023/03/28 08:01:51;;;;;;;18.77;8.07;;;9.70;99.90;;;;;;5094575;28;20548;-63
2023/03/28 08:04:17;;;;;;;21.45;7.30;;;9.90;99.90;;;;;;5094728;28;20032;-63
2023/03/28 08:06:44;;;;;;;22.92;7.32;;;9.50;99.90;;;;;;5094788;28;20078;-63
2023/03/28 08:09:12;;;;;;;26.45;7.88;;;9.80;1.00;;;;;;5094555;28;20024;-63
2023/03/28 08:11:39;;;;;;;20.27;7.35;;;9.40;99.90;;;;;;5094430;28;20024;-64
2023/03/28 08:14:08;;;;;;;19.90;7.22;;;9.80;99.90;;;;;;5094560;28;20116;-63
2023/03/28 08:16:33;;;;;;;17.92;5.75;;;10.40;1.00;;;;;;5094268;28;20027;-63
2023/03/28 08:18:59;;;;;;;16.67;6.00;;;10.30;1.00;;;;;;5094289;28;20456;-63
2023/03/28 08:21:26;;;;;;;20.75;5.07;;;9.70;97.60;;;;;;5094809;28;20032;-62
2023/03/28 08:23:52;;;;;;;18.63;5.85;;;9.50;1.00;;;;;;5094423;28;20107;-63
2023/03/28 08:26:17;;;;;;;21.65;6.88;;;10.10;99.90;;;;;;5094174;28;20541;-63
2023/03/28 08:28:43;;;;;;;12.90;5.55;;;10.30;99.90;;;;;;5094310;28;20410;-63
2023/03/28 08:31:13;;;;;;;14.60;5.75;;;10.20;1.00;;;;;;5093674;28;20036;-63
2023/03/28 08:33:39;;;;;;;15.13;6.05;;;10.80;99.90;;;;;;5094061;28;20085;-63
2023/03/28 08:36:06;;;;;;;15.68;5.38;;;10.40;99.90;;;;;;5093875;28;20024;-63
2023/03/28 08:38:31;;;;;;;13.88;5.15;;;10.60;99.90;;;;;;5094085;28;20385;-63
2023/03/28 08:41:39;;;;;;;13.07;4.85;;;9.90;99.90;;;;;;5093405;28;20020;-64
2023/03/28 08:44:44;;;;;;;10.02;4.07;;;9.30;1.00;;;;;;5093948;28;20024;-63
2023/03/28 08:47:18;;;;;;;12.35;4.45;;;9.00;99.90;;;;;;5093836;28;20036;-63
2023/03/28 08:49:48;;;;;;;12.32;4.15;;;9.40;99.90;;;;;;5093974;28;20043;-64
2023/03/28 08:52:17;;;;;;;15.35;5.00;;;9.30;27.90;;;;;;5093626;28;20039;-64
2023/03/28 08:54:51;;;;;;;10.43;4.15;;;9.60;1.00;;;;;;5093652;28;20026;-63
2023/03/28 08:57:23;;;;;;;12.23;4.18;;;9.80;7.00;;;;;;5093656;28;20032;-63
2023/03/28 09:00:15;;;;;;;11.15;4.80;;;10.50;99.90;;;;;;5093551;28;20478;-63
2023/03/28 09:02:42;;;;;;;14.43;4.40;;;9.80;99.90;;;;;;5092389;28;20055;-63
2023/03/28 09:05:15;;;;;;;14.13;5.20;;;10.30;99.90;;;;;;5093659;28;20505;-63
2023/03/28 09:08:07;;;;;;;12.20;4.10;;;10.40;99.90;;;;;;5093678;28;20028;-63
2023/03/28 09:10:42;;;;;;;11.18;3.08;;;10.60;1.00;;;;;;5093564;28;20442;-63
2023/03/28 09:13:34;;;;;;;8.00;3.13;;;11.40;99.90;;;;;;5093574;28;20390;-63
2023/03/28 09:16:25;;;;;;;10.82;3.03;;;10.90;99.90;;;;;;5092652;28;20093;-63
2023/03/28 09:19:30;;;;;;;8.18;2.78;;;10.50;99.90;;;;;;5093399;28;20390;-63
2023/03/28 09:22:15;;;;;;;12.73;3.28;;;10.00;99.90;;;;;;5093365;28;20122;-63
2023/03/28 09:25:05;;;;;;;8.77;2.67;;;9.40;99.90;;;;;;5093577;28;20546;-64
2023/03/28 09:27:34;;;;;;;15.40;2.45;;;8.90;99.90;;;;;;5093301;28;20028;-63
2023/03/28 09:30:15;;;;;;;9.95;2.60;;;8.30;99.90;;;;;;5092912;28;20051;-63
2023/03/28 09:32:41;;;;;;;9.55;2.35;;;8.00;99.90;;;;;;5093360;28;20051;-63
2023/03/28 09:35:17;;;;;;;8.00;2.60;;;7.80;1.00;;;;;;5093173;28;20494;-64
2023/03/28 09:37:48;;;;;;;12.18;3.10;;;7.70;99.90;;;;;;5093063;28;20032;-63
2023/03/28 09:40:32;;;;;;;13.60;3.17;;;7.80;1.00;;;;;;5093353;28;20065;-64
2023/03/28 09:43:03;;;;;;;;;;;7.80;1.00;;;;;;5093763;28;20016;-63
2023/03/28 09:45:57;;;;;;;12.45;2.42;;;7.90;99.90;;;;;;5093345;28;19904;-63
2023/03/28 09:48:27;;;;;;;13.32;3.47;;;8.30;99.90;;;;;;5093249;28;20390;-63
2023/03/28 09:50:54;;;;;;;17.25;3.33;;;8.30;99.90;;;;;;5093074;28;20025;-63
2023/03/28 09:53:36;;;;;;;15.45;3.53;;;8.10;99.90;;;;;;5096278;28;20069;-63
2023/03/28 09:56:27;;;;;;;14.93;3.40;;;8.00;99.90;;;;;;5097561;28;20031;-63
2023/03/28 09:58:55;;;;;;;10.40;3.08;;;7.90;1.00;;;;;;5097066;28;20394;-63
2023/03/28 10:01:43;;;;;;;12.07;3.00;;;7.90;99.90;;;;;;5096845;28;20024;-63
2023/03/28 10:04:12;;;;;;;9.55;3.10;;;8.00;99.90;;;;;;5096899;28;20478;-64
2023/03/28 10:06:39;;;;;;;7.38;3.08;;;8.50;69.60;;;;;;5096794;28;20028;-64
2023/03/28 10:09:24;;;;;;;10.07;4.32;;;9.50;99.90;;;;;;5097097;28;20046;-63
2023/03/28 10:11:53;;;;;;;11.30;4.05;;;9.70;99.90;;;;;;5096629;28;20062;-64
2023/03/28 10:14:40;;;;;;;14.43;4.05;;;10.70;74.30;;;;;;5096993;28;20111;-64
2023/03/28 10:17:13;;;;;;;10.20;2.92;;;10.60;1.00;;;;;;5096653;28;20073;-64
2023/03/28 10:19:42;;;;;;;6.45;2.47;;;9.60;99.90;;;;;;5096468;28;20535;-64
2023/03/28 10:22:14;;;;;;;9.25;3.35;;;8.90;99.90;;;;;;5096889;28;20032;-64
2023/03/28 10:24:41;;;;;;;10.50;3.50;;;8.30;1.00;;;;;;5096455;28;20036;-63
2023/03/28 10:27:15;;;;;;;9.93;3.38;;;8.00;1.00;;;;;;5096546;28;20103;-63
2023/03/28 10:29:41;;;;;;;14.93;4.35;;;8.00;47.90;;;;;;5096063;28;20089;-65
2023/03/28 10:32:11;;;;;;;9.88;3.17;;;7.80;99.90;;;;;;5096141;28;20024;-64
2023/03/28 10:34:37;;;;;;;9.85;3.28;;;7.80;99.90;;;;;;5096451;28;20036;-63
2023/03/28 10:37:20;;;;;;;12.90;3.60;;;7.90;99.90;;;;;;5095921;28;20020;-63
2023/03/28 10:39:59;;;;;;;10.30;3.50;;;7.80;99.90;;;;;;5096314;28;20028;-64
2023/03/28 10:42:24;;;;;;;9.65;2.70;;;7.80;99.90;;;;;;5095927;28;20478;-64
2023/03/28 10:44:59;;;;;;;9.77;3.22;;;8.50;99.90;;;;;;5096258;28;20031;-64
2023/03/28 10:47:26;;;;;;;7.53;1.90;;;9.50;8.80;;;;;;5096236;28;20043;-64
2023/03/28 10:49:54;;;;;;;7.38;2.30;;;10.30;1.00;;;;;;5090516;28;20109;-64
2023/03/28 10:52:49;;;;;;;8.02;2.47;;;10.50;99.90;;;;;;5092794;28;20028;-64
2023/03/28 10:55:22;;;;;;;11.30;2.72;;;10.40;99.90;;;;;;5096046;28;20052;-64
2023/03/28 10:58:25;;;;;;;8.15;2.50;;;10.40;99.90;;;;;;5089016;28;20032;-64
2023/03/28 11:01:00;;;;;;;7.82;2.65;;;9.90;99.90;;;;;;5100032;28;20028;-66
2023/03/28 11:04:04;;;;;;;8.18;2.28;;;9.40;99.90;;;;;;5115743;28;20036;-64
2023/03/28 11:06:41;;;;;;;6.43;2.17;;;9.50;99.90;;;;;;5116199;27;20028;-64
2023/03/28 11:09:25;;;;;;;13.20;2.55;;;9.60;99.90;;;;;;5116424;28;20273;-64
2023/03/28 11:12:04;;;;;;;6.95;2.60;;;10.40;99.90;;;;;;5115831;28;20039;-64
2023/03/28 11:14:46;;;;;;;12.52;2.58;;;10.40;99.90;;;;;;5115786;28;20024;-64
2023/03/28 11:17:24;;;;;;;8.10;2.25;;;10.10;99.90;;;;;;5116182;28;20427;-64
2023/03/28 11:20:06;;;;;;;11.35;2.58;;;11.20;99.90;;;;;;5115794;28;20068;-64
2023/03/28 11:23:02;;;;;;;8.88;2.83;;;11.30;47.60;;;;;;5115938;28;20016;-64
2023/03/28 11:25:45;;;;;;;9.13;2.40;;;10.50;69.00;;;;;;5115920;28;20051;-64
2023/03/28 11:28:39;;;;;;;11.13;2.77;;;10.00;84.80;;;;;;5115503;28;20073;-64
2023/03/28 11:31:10;;;;;;;7.57;1.98;;;9.90;99.90;;;;;;5115217;28;20497;-64
2023/03/28 11:34:02;;;;;;;11.10;2.28;;;10.10;62.40;;;;;;5115424;28;20426;-64
2023/03/28 11:36:34;;;;;;;9.15;2.25;;;10.50;99.90;;;;;;5115276;28;20051;-64
2023/03/28 11:39:10;;;;;;;7.03;1.83;;;10.00;49.80;;;;;;5115567;28;20495;-64
2023/03/28 11:41:38;;;;;;;7.57;2.47;;;9.50;57.00;;;;;;5115302;28;20027;-64
2023/03/28 11:44:27;;;;;;;6.35;2.60;;;9.40;89.20;;;;;;5115673;28;20027;-64
2023/03/28 11:47:16;;;;;;;6.65;1.80;;;9.20;99.90;;;;;;5115323;28;20027;-64
2023/03/28 11:49:49;;;;;;;10.23;2.60;;;9.20;99.90;;;;;;5115326;28;20031;-64
2023/03/28 11:52:22;;;;;;;10.40;2.67;;;9.30;99.90;;;;;;5085313;28;20036;-64
2023/03/28 11:55:10;;;;;;;7.88;1.98;;;9.00;99.90;;;;;;5074107;28;20063;-65
2023/03/28 11:57:50;;;;;;;6.47;2.10;;;9.20;99.90;;;;;;5072052;28;20028;-64
2023/03/28 12:00:32;;;;;;;8.55;1.90;;;9.20;99.90;;;;;;5058363;28;20478;-64
2023/03/28 12:03:28;;;;;;;7.30;2.27;;;9.00;99.90;;;;;;5074380;28;20486;-64
2023/03/28 12:05:58;;;;;;;11.60;2.50;;;9.30;99.90;;;;;;5074326;28;20262;-64
2023/03/28 12:08:48;;;;;;;8.25;1.95;;;9.70;99.90;;;;;;5074428;28;20028;-64
2023/03/28 12:11:22;;;;;;;6.45;2.38;;;10.00;99.90;;;;;;5073964;28;20556;-64
2023/03/28 12:13:56;;;;;;;5.85;2.00;;;9.60;50.60;;;;;;5074130;28;20025;-64
2023/03/28 12:16:33;;;;;;;6.28;2.30;;;9.30;32.90;;;;;;5071484;28;20125;-64
2023/03/28 12:19:01;;;;;;;4.28;1.80;;;8.90;81.10;;;;;;5073846;28;20497;-64
2023/03/28 12:21:45;;;;;;;9.77;2.25;;;9.00;66.60;;;;;;5069350;28;20033;-64
2023/03/28 12:24:41;;;;;;;10.70;2.35;;;9.10;99.90;;;;;;5056168;28;20029;-64
2023/03/28 12:27:30;;;;;;;9.40;2.25;;;9.10;91.90;;;;;;5094376;28;20028;-64
2023/03/28 12:30:05;;;;;;;5.68;1.90;;;9.40;99.90;;;;;;5094052;28;20044;-64
2023/03/28 12:40:58;;;;;;;11.73;2.00;;;10.00;99.90;;;;;;5130798;27;20956;-63
2023/03/28 12:43:30;;;;;;;7.20;2.20;;;9.90;74.00;;;;;;5131248;28;20084;-64
2023/03/28 12:46:00;;;;;;;5.15;2.08;;;9.80;38.20;;;;;;5131635;28;20023;-63
2023/03/28 12:48:50;;;;;;;8.50;2.42;;;9.60;14.70;;;;;;5123300;28;20048;-63
2023/03/28 12:51:24;;;;;;;9.57;2.00;;;9.70;29.90;;;;;;5106727;28;20028;-63
2023/03/28 12:54:26;;;;;;;7.28;2.55;;;10.00;49.80;;;;;;5110579;28;20477;-63
2023/03/28 13:02:24;;;;;;;9.63;2.30;;;10.10;38.10;;;;;;5111119;27;20793;-64
2023/03/28 13:04:57;;;;;;;7.20;1.85;;;10.40;30.90;;;;;;5111191;28;20538;-64
2023/03/28 13:07:35;;;;;;;9.70;2.80;;;10.20;36.10;;;;;;5111056;28;20389;-63
2023/03/28 13:10:25;;;;;;;7.18;2.03;;;10.00;39.70;;;;;;5111171;28;20389;-63
2023/03/28 13:13:15;;;;;;;10.32;2.33;;;10.40;24.90;;;;;;5111007;28;20023;-63
2023/03/28 13:16:00;;;;;;;4.88;1.92;;;10.10;22.80;;;;;;5110517;28;20024;-63
2023/03/28 13:18:30;;;;;;;5.40;1.83;;;10.00;1.00;;;;;;5111016;28;20470;-63
2023/03/28 13:20:56;;;;;;;6.88;2.15;;;10.10;1.00;;;;;;5110855;28;20031;-64
2023/03/28 13:23:34;;;;;;;4.32;1.80;;;9.70;1.00;;;;;;5110973;28;20076;-63
2023/03/28 13:26:02;;;;;;;8.55;2.40;;;9.60;1.00;;;;;;5110642;28;20034;-64
2023/03/28 13:28:32;;;;;;;6.13;2.10;;;9.80;1.00;;;;;;5110715;28;20031;-64